createdAt,value
2019-04-30T00:00:00.550Z,44.30
2019-04-30T00:02:35.843Z,44.30
2019-04-30T00:04:58.857Z,44.40
2019-04-30T00:07:26.330Z,44.40
2019-04-30T00:09:55.204Z,44.50
2019-04-30T00:12:23.257Z,44.40
2019-04-30T00:14:50.733Z,44.40
2019-04-30T00:17:19.803Z,44.50
2019-04-30T00:19:50.495Z,44.50
2019-04-30T00:22:16.683Z,44.60
2019-04-30T00:24:49.599Z,44.60
2019-04-30T00:27:15.036Z,44.80
2019-04-30T00:29:42.670Z,44.80
2019-04-30T00:32:10.143Z,44.60
2019-04-30T00:34:39.332Z,44.60
2019-04-30T00:37:13.669Z,44.60
2019-04-30T00:39:36.369Z,44.60
2019-04-30T00:42:04.943Z,44.50
2019-04-30T00:44:32.506Z,44.50
2019-04-30T00:47:00.727Z,44.40
2019-04-30T00:49:29.163Z,44.20
2019-04-30T00:51:58.200Z,44.10
2019-04-30T00:54:27.982Z,44.10
2019-04-30T00:56:57.455Z,44.10
2019-04-30T00:59:24.994Z,43.90
2019-04-30T01:02:06.624Z,43.90
2019-04-30T01:04:38.641Z,44.00
2019-04-30T01:07:08.642Z,44.00
2019-04-30T01:09:39.734Z,44.00
2019-04-30T01:12:05.544Z,44.00
2019-04-30T01:14:33.374Z,44.10
2019-04-30T01:17:03.713Z,44.20
2019-04-30T01:19:32.768Z,45.00
2019-04-30T01:21:59.469Z,44.30
2019-04-30T01:24:28.362Z,44.30
2019-04-30T01:27:00.718Z,44.40
2019-04-30T01:29:25.943Z,44.50
2019-04-30T01:31:53.444Z,44.60
2019-04-30T01:34:20.936Z,44.30
2019-04-30T01:36:52.114Z,44.30
2019-04-30T01:39:19.415Z,44.30
2019-04-30T01:41:52.290Z,44.20
2019-04-30T01:44:19.909Z,44.10
2019-04-30T01:46:51.325Z,44.10
2019-04-30T01:49:20.003Z,44.00
2019-04-30T01:51:45.789Z,44.00
2019-04-30T01:54:13.787Z,43.90
2019-04-30T01:56:44.108Z,43.90
2019-04-30T01:59:22.501Z,43.90
2019-04-30T02:01:51.336Z,43.90
2019-04-30T02:04:19.558Z,43.90
2019-04-30T02:06:49.188Z,44.00
2019-04-30T02:09:16.513Z,43.90
2019-04-30T02:11:43.982Z,43.90
2019-04-30T02:14:11.486Z,43.80
2019-04-30T02:16:39.548Z,43.90
2019-04-30T02:19:09.058Z,43.90
2019-04-30T02:21:36.430Z,43.90
2019-04-30T02:24:03.910Z,43.90
2019-04-30T02:26:31.392Z,44.00
2019-04-30T02:28:59.418Z,44.10
2019-04-30T02:31:27.030Z,44.20
2019-04-30T02:33:56.137Z,44.20
2019-04-30T02:36:25.242Z,44.10
2019-04-30T02:38:54.357Z,44.10
2019-04-30T02:41:21.834Z,44.00
2019-04-30T02:43:49.753Z,44.00
2019-04-30T02:46:19.194Z,43.90
2019-04-30T02:48:46.894Z,43.90
2019-04-30T02:51:14.411Z,43.90
2019-04-30T02:53:50.465Z,43.70
2019-04-30T02:56:20.269Z,43.70
2019-04-30T02:58:50.199Z,43.80
2019-04-30T03:01:19.470Z,43.80
2019-04-30T03:03:46.419Z,43.80
2019-04-30T03:06:13.894Z,43.80
2019-04-30T03:08:41.416Z,43.80
2019-04-30T03:11:09.760Z,43.90
2019-04-30T03:13:40.091Z,43.80
2019-04-30T03:16:09.369Z,43.80
2019-04-30T03:18:55.445Z,43.80
2019-04-30T03:21:41.109Z,43.90
2019-04-30T03:24:10.760Z,43.90
2019-04-30T03:26:40.019Z,44.00
2019-04-30T03:29:10.746Z,44.20
2019-04-30T03:31:42.797Z,44.40
2019-04-30T03:34:06.347Z,45.20
2019-04-30T03:36:33.864Z,44.40
2019-04-30T03:39:01.513Z,44.60
2019-04-30T03:41:33.100Z,44.60
2019-04-30T03:44:16.788Z,44.60
2019-04-30T03:46:29.841Z,44.60
2019-04-30T03:48:56.591Z,44.50
2019-04-30T03:51:24.060Z,44.50
2019-04-30T03:53:51.543Z,44.40
2019-04-30T03:56:20.042Z,44.30
2019-04-30T03:58:50.213Z,44.10
2019-04-30T04:01:31.442Z,44.00
2019-04-30T04:04:20.032Z,44.00
2019-04-30T04:06:56.034Z,43.90
2019-04-30T04:09:29.976Z,44.00
2019-04-30T04:11:59.967Z,44.10
2019-04-30T04:14:29.621Z,44.10
2019-04-30T04:16:56.815Z,44.00
2019-04-30T04:19:24.284Z,44.00
2019-04-30T04:21:51.769Z,44.00
2019-04-30T04:24:20.386Z,44.50
2019-04-30T04:26:50.315Z,44.60
2019-04-30T04:29:19.658Z,44.60
2019-04-30T04:31:49.773Z,44.60
2019-04-30T04:34:16.089Z,44.70
2019-04-30T04:36:43.756Z,44.80
2019-04-30T04:39:11.299Z,44.80
2019-04-30T04:41:39.879Z,44.70
2019-04-30T04:44:12.567Z,44.20
2019-04-30T04:46:36.835Z,44.90
2019-04-30T04:49:04.311Z,44.90
2019-04-30T04:51:38.504Z,44.90
2019-04-30T04:54:03.378Z,44.90
2019-04-30T04:56:30.563Z,44.90
2019-04-30T04:59:00.240Z,44.90
2019-04-30T05:01:28.886Z,44.90
2019-04-30T05:03:59.141Z,44.90
2019-04-30T05:06:29.633Z,44.90
2019-04-30T05:08:56.261Z,44.90
2019-04-30T05:11:23.784Z,45.10
2019-04-30T05:13:51.305Z,45.10
2019-04-30T05:16:19.214Z,45.20
2019-04-30T05:18:48.671Z,45.00
2019-04-30T05:21:16.042Z,45.10
2019-04-30T05:23:43.506Z,45.10
2019-04-30T05:26:11.239Z,45.20
2019-04-30T05:28:39.397Z,45.20
2019-04-30T05:31:08.730Z,45.10
2019-04-30T05:33:36.342Z,45.10
2019-04-30T05:36:03.817Z,45.10
2019-04-30T05:38:31.440Z,45.20
2019-04-30T05:40:59.552Z,45.10
2019-04-30T05:43:28.829Z,45.10
2019-04-30T05:45:58.536Z,45.00
2019-04-30T05:48:25.746Z,45.10
2019-04-30T05:50:53.218Z,45.10
2019-04-30T05:53:21.101Z,45.10
2019-04-30T05:55:49.362Z,45.30
2019-04-30T05:58:19.248Z,45.20
2019-04-30T06:00:46.398Z,45.20
2019-04-30T06:03:25.347Z,45.20
2019-04-30T06:05:43.063Z,45.40
2019-04-30T06:08:12.193Z,45.10
2019-04-30T06:10:59.740Z,45.00
2019-04-30T06:13:32.070Z,45.10
2019-04-30T06:16:08.709Z,45.20
2019-04-30T06:18:36.362Z,45.00
2019-04-30T06:21:03.833Z,45.00
2019-04-30T06:23:31.306Z,44.90
2019-04-30T06:26:06.766Z,44.90
2019-04-30T06:28:29.254Z,44.90
2019-04-30T06:30:56.794Z,45.20
2019-04-30T06:33:24.265Z,45.20
2019-04-30T06:35:51.733Z,45.00
2019-04-30T06:38:19.205Z,44.90
2019-04-30T06:40:48.738Z,44.90
2019-04-30T06:43:16.058Z,44.90
2019-04-30T06:45:43.972Z,44.90
2019-04-30T06:48:11.834Z,44.80
2019-04-30T06:50:39.460Z,44.70
2019-04-30T06:53:09.147Z,44.70
2019-04-30T06:55:36.246Z,44.60
2019-04-30T06:58:12.212Z,44.70
2019-04-30T07:00:35.620Z,44.70
2019-04-30T07:03:03.224Z,44.50
2019-04-30T07:05:30.710Z,44.70
2019-04-30T07:08:16.414Z,44.60
2019-04-30T07:10:53.158Z,44.50
2019-04-30T07:13:20.814Z,44.50
2019-04-30T07:15:48.984Z,44.60
2019-04-30T07:18:16.522Z,44.60
2019-04-30T07:20:43.990Z,44.50
2019-04-30T07:23:11.463Z,44.60
2019-04-30T07:25:39.158Z,44.60
2019-04-30T07:28:08.900Z,44.50
2019-04-30T07:30:36.042Z,44.50
2019-04-30T07:33:03.620Z,44.40
2019-04-30T07:35:31.091Z,44.50
2019-04-30T07:38:03.352Z,44.50
2019-04-30T07:40:29.239Z,45.20
2019-04-30T07:42:58.977Z,44.50
2019-04-30T07:45:26.115Z,44.60
2019-04-30T07:47:53.582Z,44.60
2019-04-30T07:50:22.439Z,44.50
2019-04-30T07:53:01.940Z,44.50
2019-04-30T07:55:19.791Z,44.50
2019-04-30T07:57:50.249Z,44.50
2019-04-30T08:00:16.817Z,44.40
2019-04-30T08:02:45.938Z,44.50
2019-04-30T08:05:16.551Z,44.10
2019-04-30T08:07:44.094Z,44.10
2019-04-30T08:10:11.733Z,44.10
2019-04-30T08:12:43.076Z,44.10
2019-04-30T08:15:09.609Z,44.20
2019-04-30T08:17:38.884Z,44.20
2019-04-30T08:20:08.601Z,44.10
2019-04-30T08:22:35.679Z,44.10
2019-04-30T08:25:03.726Z,44.10
2019-04-30T08:27:31.182Z,44.20
2019-04-30T08:29:59.184Z,44.40
2019-04-30T08:32:28.793Z,44.30
2019-04-30T08:34:56.110Z,44.50
2019-04-30T08:37:23.715Z,44.40
2019-04-30T08:39:51.174Z,44.40
2019-04-30T08:42:29.075Z,44.40
2019-04-30T08:44:48.552Z,44.50
2019-04-30T08:47:16.097Z,44.50
2019-04-30T08:49:43.858Z,44.50
2019-04-30T08:52:11.779Z,44.40
2019-04-30T08:54:39.565Z,44.40
2019-04-30T08:57:08.613Z,44.40
2019-04-30T08:59:36.214Z,44.40
2019-04-30T09:02:15.300Z,44.20
2019-04-30T09:04:33.058Z,44.20
2019-04-30T09:07:00.530Z,44.10
2019-04-30T09:09:29.576Z,44.10
2019-04-30T09:11:59.217Z,44.20
2019-04-30T09:14:26.514Z,44.10
2019-04-30T09:16:54.365Z,44.10
2019-04-30T09:19:21.829Z,44.10
2019-04-30T09:21:49.330Z,44.10
2019-04-30T09:24:16.802Z,44.00
2019-04-30T09:26:44.331Z,44.10
2019-04-30T09:29:11.801Z,44.10
2019-04-30T09:31:40.940Z,44.10
2019-04-30T09:34:15.193Z,44.10
2019-04-30T09:36:39.154Z,44.10
2019-04-30T09:39:08.794Z,44.20
2019-04-30T09:41:36.143Z,44.10
2019-04-30T09:44:03.988Z,44.10
2019-04-30T09:46:31.472Z,44.20
2019-04-30T09:48:59.765Z,44.20
2019-04-30T09:51:29.901Z,44.10
2019-04-30T09:53:59.786Z,44.10
2019-04-30T09:56:25.789Z,44.10
2019-04-30T09:58:53.253Z,44.20
2019-04-30T10:01:22.091Z,44.10
2019-04-30T10:03:50.650Z,44.10
2019-04-30T10:06:19.027Z,44.20
2019-04-30T10:08:50.576Z,44.10
2019-04-30T10:11:26.282Z,44.00
2019-04-30T10:13:53.754Z,43.90
2019-04-30T10:16:34.677Z,44.00
2019-04-30T10:19:02.145Z,44.00
2019-04-30T10:21:29.670Z,43.90
2019-04-30T10:24:11.874Z,43.90
2019-04-30T10:26:26.389Z,43.80
2019-04-30T10:28:53.885Z,43.90
2019-04-30T10:31:21.408Z,43.90
2019-04-30T10:33:48.874Z,43.90
2019-04-30T10:36:16.442Z,44.00
2019-04-30T10:38:43.910Z,44.10
2019-04-30T10:41:11.377Z,44.10
2019-04-30T10:43:39.368Z,44.10
2019-04-30T10:46:07.054Z,44.30
2019-04-30T10:48:34.522Z,44.20
2019-04-30T10:51:01.993Z,44.60
2019-04-30T10:53:29.463Z,44.20
2019-04-30T10:55:56.936Z,44.20
2019-04-30T10:58:24.402Z,44.20
2019-04-30T11:00:51.869Z,44.40
2019-04-30T11:03:22.827Z,44.60
2019-04-30T11:05:48.882Z,44.50
2019-04-30T11:08:16.389Z,44.20
2019-04-30T11:10:43.852Z,44.10
2019-04-30T11:13:11.327Z,44.20
2019-04-30T11:15:39.465Z,44.20
2019-04-30T11:18:07.156Z,44.20
2019-04-30T11:20:34.988Z,44.10
2019-04-30T11:23:13.878Z,44.00
2019-04-30T11:25:32.684Z,44.00
2019-04-30T11:28:01.152Z,43.90
2019-04-30T11:30:29.741Z,43.80
2019-04-30T11:32:57.677Z,43.80
2019-04-30T11:35:25.394Z,43.80
2019-04-30T11:37:52.871Z,44.00
2019-04-30T11:40:33.938Z,44.00
2019-04-30T11:42:56.660Z,44.10
2019-04-30T11:45:25.923Z,44.10
2019-04-30T11:47:53.807Z,44.20
2019-04-30T11:50:21.366Z,44.30
2019-04-30T11:52:48.829Z,44.30
2019-04-30T11:55:16.774Z,44.30
2019-04-30T11:57:44.552Z,44.40
2019-04-30T12:00:14.151Z,44.50
2019-04-30T12:02:41.619Z,44.50
2019-04-30T12:05:09.158Z,44.40
2019-04-30T12:07:38.265Z,44.20
2019-04-30T12:10:13.381Z,44.20
2019-04-30T12:12:40.858Z,44.30
2019-04-30T12:15:09.342Z,44.10
2019-04-30T12:17:36.973Z,44.10
2019-04-30T12:20:05.430Z,44.00
2019-04-30T12:22:32.893Z,43.90
2019-04-30T12:25:03.268Z,44.00
2019-04-30T12:27:29.634Z,44.00
2019-04-30T12:29:57.110Z,44.00
2019-04-30T12:32:24.589Z,43.90
2019-04-30T12:34:52.106Z,43.80
2019-04-30T12:37:19.585Z,43.80
2019-04-30T12:39:47.062Z,43.80
2019-04-30T12:42:14.571Z,43.70
2019-04-30T12:44:42.042Z,43.70
2019-04-30T12:47:09.715Z,43.60
2019-04-30T12:49:53.984Z,43.60
2019-04-30T12:52:23.089Z,43.60
2019-04-30T12:54:53.007Z,43.80
2019-04-30T12:57:23.164Z,44.00
2019-04-30T12:59:50.794Z,44.00
2019-04-30T13:02:19.275Z,44.10
2019-04-30T13:04:46.858Z,44.10
2019-04-30T13:07:15.122Z,44.00
2019-04-30T13:09:43.479Z,43.90
2019-04-30T13:12:11.949Z,43.90
2019-04-30T13:14:51.501Z,43.70
2019-04-30T13:17:08.923Z,43.60
2019-04-30T13:19:36.419Z,43.50
2019-04-30T13:22:03.938Z,43.50
2019-04-30T13:24:31.590Z,43.50
2019-04-30T13:26:59.600Z,43.40
2019-04-30T13:29:28.762Z,43.60
2019-04-30T13:31:56.243Z,43.70
2019-04-30T13:34:43.670Z,43.60
2019-04-30T13:37:11.134Z,43.50
2019-04-30T13:39:52.311Z,43.50
2019-04-30T13:42:18.600Z,43.40
2019-04-30T13:44:45.804Z,43.40
2019-04-30T13:47:13.291Z,43.40
2019-04-30T13:49:41.049Z,43.50
2019-04-30T13:52:08.530Z,43.40
2019-04-30T13:54:36.002Z,43.40
2019-04-30T13:57:03.475Z,43.40
2019-04-30T13:59:31.014Z,43.50
2019-04-30T14:01:58.869Z,43.40
2019-04-30T14:04:28.162Z,43.30
2019-04-30T14:07:09.615Z,43.40
2019-04-30T14:09:37.113Z,43.30
2019-04-30T14:12:04.591Z,43.40
2019-04-30T14:14:32.053Z,43.40
2019-04-30T14:17:01.269Z,43.40
2019-04-30T14:19:29.564Z,43.30
2019-04-30T14:21:58.893Z,43.30
2019-04-30T14:24:26.293Z,43.20
2019-04-30T14:26:53.760Z,43.40
2019-04-30T14:29:21.223Z,43.30
2019-04-30T14:31:48.824Z,43.10
2019-04-30T14:34:18.493Z,43.00
2019-04-30T14:36:45.636Z,42.80
2019-04-30T14:39:16.803Z,42.60
2019-04-30T14:41:43.055Z,42.70
2019-04-30T14:44:19.235Z,42.70
2019-04-30T14:46:51.962Z,42.80
2019-04-30T14:49:22.344Z,42.60
2019-04-30T14:51:51.440Z,42.60
2019-04-30T14:54:26.839Z,42.60
2019-04-30T14:57:04.890Z,42.60
2019-04-30T14:59:38.881Z,42.50
2019-04-30T15:02:10.500Z,42.50
2019-04-30T15:04:39.285Z,42.30
2019-04-30T15:07:06.814Z,42.30
2019-04-30T15:09:34.284Z,42.30
2019-04-30T15:12:04.440Z,42.00
2019-04-30T15:14:30.957Z,42.00
2019-04-30T15:16:58.422Z,41.90
2019-04-30T15:19:25.927Z,41.70
2019-04-30T15:21:53.393Z,41.70
2019-04-30T15:24:25.951Z,41.70
2019-04-30T15:26:57.569Z,41.70
2019-04-30T15:29:22.648Z,41.70
2019-04-30T15:31:50.121Z,41.80
2019-04-30T15:34:19.217Z,42.40
2019-04-30T15:36:46.944Z,41.90
2019-04-30T15:39:16.066Z,41.80
2019-04-30T15:41:43.541Z,41.70
2019-04-30T15:44:11.022Z,41.70
2019-04-30T15:46:38.491Z,41.70
2019-04-30T15:49:06.033Z,41.70
2019-04-30T15:51:33.507Z,41.80
2019-04-30T15:54:00.979Z,41.70
2019-04-30T15:56:35.263Z,41.70
2019-04-30T15:59:11.417Z,41.70
2019-04-30T16:01:40.526Z,42.40
2019-04-30T16:04:10.307Z,41.70
2019-04-30T16:06:38.547Z,41.90
2019-04-30T16:09:08.385Z,41.80
2019-04-30T16:11:39.372Z,41.70
2019-04-30T16:14:24.658Z,41.70
2019-04-30T16:16:56.493Z,41.80
2019-04-30T16:19:23.953Z,42.00
2019-04-30T16:21:51.441Z,42.00
2019-04-30T16:24:18.902Z,42.00
2019-04-30T16:26:49.971Z,42.40
2019-04-30T16:29:15.562Z,42.10
2019-04-30T16:31:43.042Z,42.20
2019-04-30T16:34:10.514Z,42.30
2019-04-30T16:36:39.208Z,42.50
2019-04-30T16:39:08.720Z,42.60
2019-04-30T16:41:36.370Z,42.60
2019-04-30T16:44:03.840Z,42.50
2019-04-30T16:46:31.332Z,42.50
2019-04-30T16:48:58.830Z,42.50
2019-04-30T16:51:28.686Z,42.40
2019-04-30T16:53:55.601Z,42.40
2019-04-30T16:56:23.078Z,42.40
2019-04-30T16:59:00.087Z,42.40
2019-04-30T17:01:27.818Z,43.10
2019-04-30T17:03:58.897Z,42.40
2019-04-30T17:06:27.761Z,42.40
2019-04-30T17:08:59.835Z,42.40
2019-04-30T17:11:45.357Z,42.40
2019-04-30T17:14:14.458Z,42.30
2019-04-30T17:16:41.938Z,42.40
2019-04-30T17:19:09.402Z,42.30
2019-04-30T17:21:36.879Z,42.40
2019-04-30T17:24:04.350Z,42.30
2019-04-30T17:26:32.134Z,42.40
2019-04-30T17:28:59.920Z,42.30
2019-04-30T17:31:27.569Z,42.40
2019-04-30T17:33:55.029Z,42.60
2019-04-30T17:36:22.507Z,42.60
2019-04-30T17:38:49.966Z,42.60
2019-04-30T17:41:17.438Z,42.50
2019-04-30T17:43:44.914Z,42.60
2019-04-30T17:46:12.380Z,42.60
2019-04-30T17:48:39.858Z,42.70
2019-04-30T17:51:09.300Z,42.50
2019-04-30T17:53:38.912Z,42.60
2019-04-30T17:56:06.510Z,42.60
2019-04-30T17:58:33.983Z,43.20
2019-04-30T18:01:02.622Z,42.40
2019-04-30T18:03:30.105Z,42.60
2019-04-30T18:05:59.223Z,42.60
2019-04-30T18:08:26.934Z,42.50
2019-04-30T18:10:54.402Z,42.70
2019-04-30T18:13:21.874Z,42.60
2019-04-30T18:15:49.334Z,42.50
2019-04-30T18:18:24.431Z,42.50
2019-04-30T18:20:53.534Z,42.50
2019-04-30T18:23:31.410Z,43.10
2019-04-30T18:26:00.513Z,42.50
2019-04-30T18:28:29.156Z,42.50
2019-04-30T18:30:58.788Z,42.70
2019-04-30T18:33:25.958Z,42.60
2019-04-30T18:35:53.942Z,42.50
2019-04-30T18:38:21.426Z,42.60
2019-04-30T18:40:49.578Z,42.50
2019-04-30T18:43:20.384Z,42.50
2019-04-30T18:45:46.434Z,42.50
2019-04-30T18:48:13.905Z,42.50
2019-04-30T18:50:41.374Z,42.40
2019-04-30T18:53:10.492Z,42.60
2019-04-30T18:55:38.333Z,42.70
2019-04-30T18:58:05.862Z,42.60
2019-04-30T19:00:34.983Z,42.60
2019-04-30T19:03:02.461Z,42.60
2019-04-30T19:05:31.189Z,42.50
2019-04-30T19:08:03.130Z,42.50
2019-04-30T19:10:35.300Z,42.70
2019-04-30T19:13:10.232Z,42.50
2019-04-30T19:16:18.624Z,42.50
2019-04-30T19:18:26.842Z,42.40
2019-04-30T19:20:55.578Z,42.40
2019-04-30T19:23:23.061Z,42.40
2019-04-30T19:25:50.599Z,42.30
2019-04-30T19:28:18.875Z,42.30
2019-04-30T19:30:55.873Z,42.30
2019-04-30T19:33:15.682Z,42.30
2019-04-30T19:35:43.156Z,42.30
2019-04-30T19:38:10.676Z,42.30
2019-04-30T19:40:39.178Z,42.30
2019-04-30T19:43:06.785Z,42.30
2019-04-30T19:45:35.021Z,42.30
2019-04-30T19:48:02.492Z,42.30
2019-04-30T19:50:29.971Z,42.40
2019-04-30T19:52:58.776Z,42.20
2019-04-30T19:55:28.482Z,42.30
2019-04-30T19:57:55.611Z,42.30
2019-04-30T20:00:23.085Z,42.60
2019-04-30T20:02:50.930Z,42.50
2019-04-30T20:05:19.430Z,42.60
2019-04-30T20:07:48.857Z,42.60
2019-04-30T20:10:16.371Z,42.50
2019-04-30T20:12:43.845Z,42.50
2019-04-30T20:15:19.008Z,42.40
2019-04-30T20:17:40.848Z,42.30
2019-04-30T20:20:08.987Z,42.30
2019-04-30T20:22:36.574Z,42.40
2019-04-30T20:25:05.421Z,42.60
2019-04-30T20:27:32.886Z,42.30
2019-04-30T20:30:00.379Z,42.10
2019-04-30T20:32:36.124Z,42.20
2019-04-30T20:34:57.050Z,42.20
2019-04-30T20:37:24.524Z,42.20
2019-04-30T20:39:56.327Z,42.00
2019-04-30T20:42:23.799Z,42.00
2019-04-30T20:44:51.582Z,42.00
2019-04-30T20:47:21.036Z,42.00
2019-04-30T20:49:49.023Z,42.00
2019-04-30T20:52:16.558Z,41.90
2019-04-30T20:54:44.037Z,42.10
2019-04-30T20:57:11.509Z,41.90
2019-04-30T20:59:38.975Z,41.90
2019-04-30T21:02:06.449Z,41.90
2019-04-30T21:04:33.911Z,42.20
2019-04-30T21:07:01.384Z,42.30
2019-04-30T21:09:28.849Z,42.60
2019-04-30T21:11:56.337Z,42.60
2019-04-30T21:14:23.804Z,42.70
2019-04-30T21:16:51.274Z,42.60
2019-04-30T21:19:18.829Z,42.50
2019-04-30T21:21:46.297Z,42.50
2019-04-30T21:24:13.773Z,42.60
2019-04-30T21:26:41.250Z,42.60
2019-04-30T21:29:13.197Z,42.30
2019-04-30T21:31:42.508Z,42.30
2019-04-30T21:34:29.353Z,42.10
2019-04-30T21:36:56.921Z,42.00
2019-04-30T21:39:24.391Z,42.00
2019-04-30T21:41:51.942Z,42.00
2019-04-30T21:44:19.410Z,41.90
2019-04-30T21:46:46.881Z,41.90
2019-04-30T21:49:14.348Z,41.80
2019-04-30T21:51:41.809Z,41.80
2019-04-30T21:54:09.277Z,42.30
2019-04-30T21:56:36.746Z,42.50
2019-04-30T21:59:04.229Z,41.90
2019-04-30T22:01:31.690Z,41.70
2019-04-30T22:03:59.159Z,41.70
2019-04-30T22:06:26.621Z,41.80
2019-04-30T22:08:54.089Z,41.70
2019-04-30T22:11:21.555Z,41.70
2019-04-30T22:13:49.435Z,41.70
2019-04-30T22:16:20.011Z,41.90
2019-04-30T22:18:46.298Z,42.00
2019-04-30T22:21:13.773Z,41.80
2019-04-30T22:23:41.369Z,41.70
2019-04-30T22:26:08.839Z,41.70
2019-04-30T22:28:36.315Z,41.70
2019-04-30T22:31:03.778Z,41.70
2019-04-30T22:33:31.246Z,41.70
2019-04-30T22:36:15.633Z,41.70
2019-04-30T22:38:50.305Z,41.40
2019-04-30T22:41:19.394Z,41.60
2019-04-30T22:43:46.931Z,41.50
2019-04-30T22:46:16.170Z,41.40
2019-04-30T22:48:43.633Z,41.40
2019-04-30T22:51:11.101Z,41.70
2019-04-30T22:53:38.582Z,41.40
2019-04-30T22:56:06.070Z,41.40
2019-04-30T22:58:33.537Z,41.50
2019-04-30T23:01:11.887Z,41.20
2019-04-30T23:03:39.356Z,41.40
2019-04-30T23:06:06.827Z,41.40
2019-04-30T23:08:34.314Z,41.40
2019-04-30T23:11:01.834Z,41.40
2019-04-30T23:13:29.320Z,41.30
2019-04-30T23:15:56.782Z,41.40
2019-04-30T23:18:24.339Z,41.60
2019-04-30T23:20:51.822Z,41.60
2019-04-30T23:23:19.286Z,41.50
2019-04-30T23:25:46.759Z,41.50
2019-04-30T23:28:14.219Z,41.40
2019-04-30T23:30:41.857Z,41.40
2019-04-30T23:33:09.321Z,41.30
2019-04-30T23:35:36.794Z,41.30
2019-04-30T23:38:04.259Z,41.20
2019-04-30T23:40:47.429Z,41.20
2019-04-30T23:43:14.910Z,41.20
2019-04-30T23:45:42.386Z,41.20
2019-04-30T23:48:09.851Z,41.10
2019-04-30T23:50:37.342Z,41.20
2019-04-30T23:53:04.804Z,41.20
2019-04-30T23:55:32.547Z,41.10
2019-04-30T23:58:00.014Z,41.10
